Airfield :
LOGIN :

Register | Disclaimer

   EN    FR    IT 

 










Legend :    VFR   Marginal VFR   IFR   Intensive IFR   Very Intensive IFR
Visi :
Ceiling :
>= 8 km
>= 3000ft
5 to 8 km
1000 to 3000 ft
1500m to 5 km
500 to 1000 ft
800 to 1500m
200 to 500 ft
< 800m
< 200 ft
Symbols :   Thunderstorms  Fog  Heavy snow  Heavy precipitations  Wind > 20 kt
SIGMETs :     Misc.  Thunderstorms  Icing  Turbulence  Mountain Waves  Volcanic Ashes






- Airport Elevation : 461 ft
- IATA code : WIE


ETOU - Wiesbaden Army

CURRENT METAR :
  • 281856Z AUTO 01005KT 9999 CLR 15/01 A3003 RMK AO2 SLP171 T01480013 $

EXPIRED METARs :
  • 281756Z AUTO 35010KT 9999 CLR 16/01 A3003 RMK AO2 SLP172 T01640005 10187 20162 57011 $
  • 281656Z AUTO 33008KT 9999 CLR 18/00 A3004 RMK AO2 SLP175 T01760003 $

TAF AMD TAF ETOU
Valid from the 28 at 17:00 until the 29 at 21:00 UTC


281735Z 2817/2921 31010G15KT 9999 FEW035 QNH2989INS
BECMG 2817/2818 33009KT 9999 SCT035 QNH3005INS
BECMG 2823/2824 34009KT 9999 BKN035 QNH2999INS
BECMG 2903/2904 34009KT 9999 FEW025 QNH2990INS
BECMG 2916/2917 33009KT 9000 -SHRA BKN020 QNH2989INS TX19/2915Z TN07/2902Z LAST NO AMDS AFT 2817 NEXT 2905



MET'MAP, your aeronautical weather chart ! - Copyright ORBIFLY December 2007 - Disclaimer

ORBIFLY MET'MAP TEAM :

Programming & Development : Alexandra Zaïnal
Original concept : Baudouin d'Aumeries
Technical & hardware support : Manuel Goepfert
Assistance : Marc-Olivier Méhu

Contact : metmap@orbifly.com




SOURCES & CREDITS :

   NOAA